Aviation Digital Data Service (ADDS)

Output produced by TAFs form (1043 UTC 11 February 2016)
found at http://aviationweather.gov/adds/tafs/
 
KMTJ 110520Z 1106/1206 15007KT P6SM SCT250 
     FM111400 14004KT P6SM SCT250 
     FM111900 36004KT P6SM BKN250 
     FM120200 14005KT P6SM BKN200